createdAt,value
2019-04-23T00:00:03.745Z,2.43
2019-04-23T00:05:38.073Z,6.20
2019-04-23T00:07:56.167Z,5.13
2019-04-23T00:10:26.159Z,5.23
2019-04-23T00:13:04.234Z,3.47
2019-04-23T00:15:17.081Z,4.63
2019-04-23T00:17:55.536Z,4.47
2019-04-23T00:20:25.920Z,3.60
2019-04-23T00:23:06.079Z,2.77
2019-04-23T00:28:18.604Z,2.57
2019-04-23T00:30:49.978Z,2.77
2019-04-23T00:33:12.281Z,2.40
2019-04-23T00:35:38.950Z,2.83
2019-04-23T00:40:40.618Z,4.93
2019-04-23T00:43:18.187Z,6.13
2019-04-23T00:48:15.641Z,4.63
2019-04-23T00:50:46.594Z,3.47
2019-04-23T00:53:10.949Z,4.87
2019-04-23T00:55:44.729Z,6.73
2019-04-23T00:58:21.250Z,4.13
2019-04-23T01:00:45.935Z,4.77
2019-04-23T01:03:12.252Z,2.47
2019-04-23T01:05:45.491Z,4.77
2019-04-23T01:10:52.013Z,6.53
2019-04-23T01:13:22.363Z,4.70
2019-04-23T01:18:45.886Z,5.13
2019-04-23T01:20:54.629Z,2.60
2019-04-23T01:23:43.745Z,5.77
2019-04-23T01:26:23.984Z,7.30
2019-04-23T01:29:03.348Z,4.20
2019-04-23T01:31:34.840Z,3.80
2019-04-23T01:34:08.862Z,5.57
2019-04-23T01:36:32.723Z,4.20
2019-04-23T01:39:09.834Z,2.60
2019-04-23T01:41:38.390Z,5.07
2019-04-23T01:43:58.128Z,2.33
2019-04-23T01:46:35.993Z,4.17
2019-04-23T01:49:05.952Z,4.23
2019-04-23T01:51:39.911Z,7.00
2019-04-23T01:54:06.546Z,5.10
2019-04-23T01:56:33.734Z,3.40
2019-04-23T01:59:05.137Z,4.13
2019-04-23T02:01:38.793Z,4.70
2019-04-23T02:04:10.025Z,6.53
2019-04-23T02:06:55.080Z,3.90
2019-04-23T02:09:10.969Z,5.43
2019-04-23T02:11:38.895Z,7.13
2019-04-23T02:14:09.530Z,4.83
2019-04-23T02:16:35.924Z,7.83
2019-04-23T02:19:11.440Z,6.90
2019-04-23T02:21:43.555Z,4.40
2019-04-23T02:24:27.461Z,4.93
2019-04-23T02:26:39.884Z,2.30
2019-04-23T02:29:26.626Z,3.93
2019-04-23T02:31:57.609Z,5.07
2019-04-23T02:34:29.245Z,4.43
2019-04-23T02:39:14.451Z,4.83
2019-04-23T02:41:53.885Z,7.57
2019-04-23T02:44:17.047Z,7.23
2019-04-23T02:46:54.070Z,6.80
2019-04-23T02:49:31.072Z,5.30
2019-04-23T02:51:51.053Z,6.30
2019-04-23T02:56:59.794Z,3.53
2019-04-23T02:59:35.365Z,3.80
2019-04-23T03:02:15.115Z,4.67
2019-04-23T03:06:56.075Z,5.07
2019-04-23T03:09:22.885Z,3.23
2019-04-23T03:11:48.377Z,2.87
2019-04-23T03:14:15.884Z,5.40
2019-04-23T03:19:25.641Z,3.67
2019-04-23T03:21:56.065Z,2.63
2019-04-23T03:39:42.124Z,6.77
2019-04-23T03:42:06.878Z,4.57
2019-04-23T03:44:37.735Z,5.27
2019-04-23T03:47:01.741Z,7.00
2019-04-23T03:49:41.659Z,5.90
2019-04-23T03:57:18.524Z,6.80
2019-04-23T04:02:15.507Z,6.17
2019-04-23T04:09:45.643Z,4.43
2019-04-23T04:12:07.855Z,4.23
2019-04-23T04:14:38.954Z,2.63
2019-04-23T04:22:08.735Z,4.03
2019-04-23T04:24:36.794Z,4.60
2019-04-23T04:27:06.358Z,3.87
2019-04-23T04:32:00.444Z,3.90
2019-04-23T04:42:09.333Z,5.60
2019-04-23T04:44:43.484Z,4.83
2019-04-23T04:47:15.489Z,6.90
2019-04-23T04:49:49.408Z,8.37
2019-04-23T04:54:24.547Z,5.33
2019-04-23T04:57:16.247Z,8.10
2019-04-23T04:59:35.521Z,6.83
2019-04-23T05:02:31.973Z,3.90
2019-04-23T05:04:52.555Z,3.70
2019-04-23T05:12:14.350Z,4.87
2019-04-23T05:14:50.828Z,5.53
2019-04-23T05:17:18.343Z,3.73
2019-04-23T05:22:06.659Z,25.50
2019-04-23T05:24:36.768Z,6.33
2019-04-23T05:27:02.474Z,6.63
2019-04-23T05:29:37.273Z,4.33
2019-04-23T05:32:09.596Z,3.07
2019-04-23T05:37:06.136Z,8.20
2019-04-23T05:42:04.345Z,5.50
2019-04-23T05:44:38.311Z,6.77
2019-04-23T05:49:41.240Z,5.47
2019-04-23T05:52:09.573Z,5.57
2019-04-23T05:54:48.194Z,8.07
2019-04-23T05:57:06.953Z,6.40
2019-04-23T05:59:35.800Z,6.73
2019-04-23T06:02:11.184Z,4.93
2019-04-23T06:04:42.266Z,4.20
2019-04-23T06:08:03.341Z,5.67
2019-04-23T06:10:32.659Z,8.13
2019-04-23T06:13:04.730Z,5.20
2019-04-23T06:15:37.652Z,8.27
2019-04-23T06:18:12.441Z,7.83
2019-04-23T06:20:42.389Z,7.30
2019-04-23T06:23:14.478Z,7.77
2019-04-23T06:25:54.275Z,8.43
2019-04-23T06:28:18.447Z,6.67
2019-04-23T06:33:16.080Z,8.43
2019-04-23T06:35:45.131Z,11.67
2019-04-23T06:40:41.885Z,9.03
2019-04-23T06:43:22.959Z,8.63
2019-04-23T06:45:45.300Z,8.50
2019-04-23T06:48:23.778Z,8.23
2019-04-23T06:53:14.838Z,6.93
2019-04-23T06:55:49.207Z,7.57
2019-04-23T06:58:25.742Z,12.20
2019-04-23T07:00:55.830Z,7.50
2019-04-23T07:03:22.143Z,6.13
2019-04-23T07:06:19.070Z,4.70
2019-04-23T07:11:18.827Z,6.13
2019-04-23T07:13:51.853Z,7.93
2019-04-23T07:16:21.478Z,7.13
2019-04-23T07:18:41.147Z,8.60
2019-04-23T07:21:15.431Z,6.20
2019-04-23T07:23:44.770Z,8.13
2019-04-23T07:26:26.081Z,10.00
2019-04-23T07:28:49.982Z,9.33
2019-04-23T07:31:26.547Z,12.77
2019-04-23T07:33:43.917Z,10.27
2019-04-23T07:36:17.135Z,6.57
2019-04-23T07:41:46.450Z,7.87
2019-04-23T07:44:14.156Z,7.90
2019-04-23T07:46:40.705Z,7.37
2019-04-23T07:49:04.584Z,10.03
2019-04-23T07:51:37.405Z,8.83
2019-04-23T07:54:10.973Z,8.50
2019-04-23T07:56:35.448Z,6.60
2019-04-23T07:59:14.227Z,7.23
2019-04-23T08:01:36.150Z,8.50
2019-04-23T08:04:29.726Z,5.83
2019-04-23T08:06:40.138Z,12.17
2019-04-23T08:09:09.149Z,7.47
2019-04-23T08:14:08.486Z,10.57
2019-04-23T08:19:05.679Z,6.33
2019-04-23T08:21:36.478Z,9.67
2019-04-23T08:29:16.270Z,7.93
2019-04-23T08:31:52.746Z,7.87
2019-04-23T08:34:56.420Z,9.07
2019-04-23T08:37:13.822Z,8.07
2019-04-23T08:39:38.591Z,6.93
2019-04-23T08:44:44.696Z,9.23
2019-04-23T08:57:18.678Z,6.77
2019-04-23T08:59:48.618Z,8.87
2019-04-23T09:04:49.608Z,7.50
2019-04-23T09:09:51.025Z,12.77
2019-04-23T09:14:44.404Z,9.07
2019-04-23T09:17:24.168Z,6.87
2019-04-23T09:20:07.151Z,6.37
2019-04-23T09:22:25.242Z,9.07
2019-04-23T09:24:48.007Z,12.30
2019-04-23T09:27:23.317Z,10.27
2019-04-23T09:29:51.463Z,10.03
2019-04-23T09:35:14.398Z,13.73
2019-04-23T09:40:14.929Z,13.30
2019-04-23T09:42:51.601Z,8.37
2019-04-23T09:45:22.728Z,7.10
2019-04-23T09:48:01.702Z,9.83
2019-04-23T09:55:46.752Z,9.67
2019-04-23T09:58:07.907Z,10.17
2019-04-23T10:00:46.929Z,8.30
2019-04-23T10:03:05.134Z,8.53
2019-04-23T10:05:31.119Z,8.27
2019-04-23T10:08:01.596Z,16.93
2019-04-23T10:10:20.774Z,9.07
2019-04-23T10:12:50.200Z,9.20
2019-04-23T10:15:25.043Z,7.83
2019-04-23T10:17:50.016Z,12.30
2019-04-23T10:20:20.462Z,9.60
2019-04-23T10:22:50.451Z,10.87
2019-04-23T10:25:19.305Z,8.47
2019-04-23T10:27:55.178Z,9.17
2019-04-23T10:30:19.715Z,8.83
2019-04-23T10:32:49.497Z,9.47
2019-04-23T10:35:25.681Z,10.93
2019-04-23T10:37:56.864Z,7.87
2019-04-23T10:40:25.942Z,8.47
2019-04-23T10:42:51.489Z,9.93
2019-04-23T10:45:44.618Z,7.20
2019-04-23T10:48:56.389Z,6.47
2019-04-23T10:51:41.315Z,8.33
2019-04-23T10:54:23.318Z,8.23
2019-04-23T10:56:46.392Z,8.68
2019-04-23T10:59:10.425Z,7.22
2019-04-23T11:01:43.475Z,10.10
2019-04-23T11:04:35.755Z,11.70
2019-04-23T11:06:50.122Z,6.90
2019-04-23T11:09:38.088Z,9.00
2019-04-23T11:11:52.557Z,11.27
2019-04-23T11:14:25.753Z,6.57
2019-04-23T11:16:59.824Z,7.57
2019-04-23T11:19:25.575Z,10.47
2019-04-23T11:21:59.625Z,8.77
2019-04-23T11:24:38.057Z,8.17
2019-04-23T11:26:57.956Z,8.80
2019-04-23T11:29:28.053Z,10.60
2019-04-23T11:32:01.416Z,7.53
2019-04-23T11:39:23.959Z,9.30
2019-04-23T11:41:59.961Z,6.37
2019-04-23T11:44:30.617Z,11.55
2019-04-23T11:47:27.130Z,8.15
2019-04-23T11:52:00.156Z,7.67
2019-04-23T11:54:27.853Z,7.15
2019-04-23T12:01:56.320Z,8.60
2019-04-23T12:04:55.539Z,7.83
2019-04-23T12:07:25.973Z,7.35
2019-04-23T12:10:23.551Z,10.75
2019-04-23T12:12:42.926Z,11.18
2019-04-23T12:15:07.350Z,11.48
2019-04-23T12:17:48.248Z,7.72
2019-04-23T12:22:54.439Z,9.47
2019-04-23T12:25:32.878Z,10.07
2019-04-23T12:27:59.699Z,11.57
2019-04-23T12:32:59.339Z,9.60
2019-04-23T12:35:19.287Z,9.13
2019-04-23T12:37:57.293Z,8.77
2019-04-23T12:41:12.821Z,8.57
2019-04-23T12:48:15.869Z,15.07
2019-04-23T12:50:45.117Z,10.00
2019-04-23T12:55:39.945Z,9.13
2019-04-23T12:57:50.678Z,8.20
2019-04-23T13:00:30.862Z,8.60
2019-04-23T13:03:08.498Z,9.40
2019-04-23T13:05:27.102Z,7.17
2019-04-23T13:10:44.016Z,8.60
2019-04-23T13:13:04.617Z,8.70
2019-04-23T13:15:29.396Z,8.50
2019-04-23T13:17:54.293Z,11.12
2019-04-23T13:20:27.348Z,11.27
2019-04-23T13:23:03.116Z,9.83
2019-04-23T13:25:34.562Z,9.03
2019-04-23T13:33:21.105Z,7.15
2019-04-23T13:35:45.390Z,12.10
2019-04-23T13:38:20.195Z,11.57
2019-04-23T13:43:19.515Z,9.28
2019-04-23T13:48:13.417Z,7.28
2019-04-23T13:53:28.754Z,8.10
2019-04-23T13:55:42.891Z,11.88
2019-04-23T13:58:26.790Z,7.87
2019-04-23T14:03:22.400Z,8.35
2019-04-23T14:06:18.234Z,8.55
2019-04-23T14:11:14.011Z,11.93
2019-04-23T14:16:22.711Z,12.35
2019-04-23T14:18:55.963Z,10.90
2019-04-23T14:28:41.815Z,10.77
2019-04-23T14:31:11.035Z,12.03
2019-04-23T14:36:14.080Z,11.27
2019-04-23T14:38:45.890Z,15.68
2019-04-23T14:41:19.490Z,7.72
2019-04-23T14:43:51.366Z,10.20
2019-04-23T14:48:50.024Z,7.97
2019-04-23T14:53:46.304Z,8.67
2019-04-23T14:58:50.289Z,30.77
2019-04-23T15:03:55.722Z,17.05
2019-04-23T15:11:31.875Z,10.75
2019-04-23T15:19:02.799Z,9.93
2019-04-23T15:24:00.812Z,12.05
2019-04-23T15:28:30.311Z,14.03
2019-04-23T15:34:04.275Z,10.35
2019-04-23T15:36:36.413Z,14.73
2019-04-23T15:41:29.472Z,11.27
2019-04-23T15:43:57.080Z,7.23
2019-04-23T15:46:28.447Z,9.57
2019-04-23T15:49:01.413Z,9.47
2019-04-23T15:51:30.583Z,11.03
2019-04-23T15:53:56.815Z,9.50
2019-04-23T15:59:04.426Z,10.77
2019-04-23T16:03:28.982Z,16.77
2019-04-23T16:05:57.269Z,13.93
2019-04-23T16:11:35.817Z,12.63
2019-04-23T16:16:29.766Z,8.03
2019-04-23T16:19:18.980Z,10.33
2019-04-23T16:24:19.380Z,13.80
2019-04-23T16:31:45.302Z,11.00
2019-04-23T16:34:25.654Z,15.77
2019-04-23T16:36:48.612Z,7.90
2019-04-23T16:39:20.195Z,14.77
2019-04-23T16:44:21.905Z,12.00
2019-04-23T16:49:21.823Z,8.83
2019-04-23T16:51:47.824Z,10.40
2019-04-23T16:54:26.302Z,7.70
2019-04-23T16:59:18.426Z,13.67
2019-04-23T17:01:52.167Z,12.40
2019-04-23T17:06:58.212Z,13.33
2019-04-23T17:11:59.361Z,10.20
2019-04-23T17:16:44.395Z,13.13
2019-04-23T17:19:24.197Z,10.37
2019-04-23T17:21:55.251Z,9.37
2019-04-23T17:24:25.860Z,11.13
2019-04-23T17:26:54.243Z,10.27
2019-04-23T17:29:24.831Z,11.80
2019-04-23T17:31:49.063Z,7.63
2019-04-23T17:34:30.159Z,13.47
2019-04-23T17:37:12.129Z,14.03
2019-04-23T17:40:04.602Z,11.73
2019-04-23T17:42:28.966Z,10.43
2019-04-23T17:48:00.886Z,9.13
2019-04-23T17:52:59.081Z,12.67
2019-04-23T17:55:26.066Z,12.00
2019-04-23T17:58:01.161Z,15.00
2019-04-23T18:00:40.950Z,13.50
2019-04-23T18:03:02.779Z,12.03
2019-04-23T18:05:16.596Z,14.67
2019-04-23T18:10:27.572Z,11.90
2019-04-23T18:15:41.330Z,13.70
2019-04-23T18:17:57.171Z,10.40
2019-04-23T18:20:29.617Z,12.30
2019-04-23T18:23:08.732Z,10.47
2019-04-23T18:28:22.611Z,12.50
2019-04-23T18:30:58.052Z,10.63
2019-04-23T18:33:56.663Z,16.27
2019-04-23T18:35:47.732Z,11.43
2019-04-23T18:41:04.047Z,12.30
2019-04-23T18:45:56.705Z,17.93
2019-04-23T18:51:07.822Z,19.30
2019-04-23T18:53:40.970Z,12.87
2019-04-23T18:58:44.862Z,12.23
2019-04-23T19:04:01.686Z,15.93
2019-04-23T19:06:23.793Z,12.67
2019-04-23T19:14:12.735Z,12.37
2019-04-23T19:16:50.593Z,13.50
2019-04-23T19:19:09.607Z,10.47
2019-04-23T19:22:00.971Z,10.83
2019-04-23T19:24:09.419Z,14.80
2019-04-23T19:29:12.973Z,14.77
2019-04-23T19:31:55.877Z,13.53
2019-04-23T19:34:30.359Z,12.43
2019-04-23T19:36:59.439Z,16.27
2019-04-23T19:39:24.598Z,15.10
2019-04-23T19:42:00.647Z,14.70
2019-04-23T19:44:24.805Z,17.17
2019-04-23T19:49:28.896Z,14.83
2019-04-23T19:51:53.610Z,15.43
2019-04-23T19:54:47.767Z,12.57
2019-04-23T19:59:31.608Z,14.37
2019-04-23T20:04:28.891Z,15.53
2019-04-23T20:07:12.568Z,12.60
2019-04-23T20:11:57.369Z,18.90
2019-04-23T20:14:26.202Z,12.17
2019-04-23T20:19:33.016Z,15.77
2019-04-23T20:24:39.346Z,16.03
2019-04-23T20:27:06.152Z,13.73
2019-04-23T20:30:05.371Z,15.40
2019-04-23T20:34:58.829Z,14.07
2019-04-23T20:37:48.563Z,16.60
2019-04-23T20:47:30.396Z,16.00
2019-04-23T20:49:48.450Z,22.97
2019-04-23T20:52:12.824Z,15.73
2019-04-23T20:57:42.907Z,12.97
2019-04-23T21:03:04.927Z,15.97
2019-04-23T21:05:11.799Z,16.03
2019-04-23T21:10:18.234Z,14.27
2019-04-23T21:12:57.824Z,18.47
2019-04-23T21:15:12.041Z,17.90
2019-04-23T21:20:17.783Z,20.00
2019-04-23T21:22:38.262Z,19.90
2019-04-23T21:25:14.800Z,15.43
2019-04-23T21:27:44.909Z,15.63
2019-04-23T21:30:08.563Z,18.27
2019-04-23T21:32:52.695Z,19.83
2019-04-23T21:35:27.824Z,21.77
2019-04-23T21:37:54.110Z,22.73
2019-04-23T21:40:45.077Z,17.73
2019-04-23T21:43:16.268Z,14.30
2019-04-23T21:45:30.461Z,20.47
2019-04-23T21:50:45.586Z,17.40
2019-04-23T21:52:54.468Z,18.27
2019-04-23T21:55:36.509Z,20.10
2019-04-23T22:00:34.673Z,15.63
2019-04-23T22:03:03.653Z,20.03
2019-04-23T22:05:32.549Z,15.73
2019-04-23T22:08:03.095Z,17.53
2019-04-23T22:10:26.258Z,21.50
2019-04-23T22:15:39.590Z,20.37
2019-04-23T22:18:14.072Z,15.23
2019-04-23T22:23:05.487Z,16.90
2019-04-23T22:25:31.663Z,15.07
2019-04-23T22:28:03.182Z,17.77
2019-04-23T22:30:31.457Z,18.87
2019-04-23T22:33:02.911Z,21.13
2019-04-23T22:35:30.097Z,15.07
2019-04-23T22:38:09.515Z,16.60
2019-04-23T22:40:28.243Z,18.37
2019-04-23T22:48:04.869Z,17.70
2019-04-23T22:50:28.246Z,14.30
2019-04-23T22:53:00.347Z,15.93
2019-04-23T22:55:32.365Z,16.17
2019-04-23T23:00:29.981Z,19.10
2019-04-23T23:05:53.517Z,13.33
2019-04-23T23:10:36.590Z,13.97
2019-04-23T23:15:41.716Z,15.97
2019-04-23T23:18:14.718Z,13.67
2019-04-23T23:23:11.464Z,19.00
2019-04-23T23:25:47.217Z,13.67
2019-04-23T23:28:12.164Z,18.13
2019-04-23T23:30:46.734Z,16.10
2019-04-23T23:33:27.143Z,18.07
2019-04-23T23:35:43.673Z,16.47
2019-04-23T23:38:16.706Z,14.17
2019-04-23T23:40:57.165Z,16.13
2019-04-23T23:43:23.061Z,16.27
2019-04-23T23:48:12.777Z,17.77
2019-04-23T23:50:55.067Z,22.77
2019-04-23T23:53:29.842Z,16.00
2019-04-23T23:55:58.631Z,11.03
2019-04-23T23:58:25.291Z,19.63
